• Join FlightAware (Why Join?)
  • Login
  • US Flag 
11:49PM EDT


 

Airport Tracker/Info


-or-


 

Live Flight TrackerFlight Track Log ✈ DCM7195 ✈ 21-May-2013 ✈ KCID - KMQJ

Flight Track Log - Related Links

Times and Time Zones

All times are in EDT time to prevent confusion due to time zone crossing. See the DCM7195 flight status page for this flight to view local times or setup timezone preferences in your user account.

Time Position Orientation Groundspeed Altitude Reporting Facility
EDT Latitude Longitude Course Direction KTS MPH feet Rate Location/Type
04:28PM 41.8650 -91.7894 127° Southeast 182 209 4,100  Level Chicago Center
04:29PM 41.8331 -91.7328 127° Southeast 180 207 6,100 1,800 Climbing Chicago Center
04:30PM 41.8133 -91.6703 113° Southeast 185 213 7,900 1,920 Climbing Chicago Center
04:31PM 41.7936 -91.6031 111° Southeast 193 222 10,100 1,860 Climbing Chicago Center
04:32PM 41.7722 -91.5333 112° Southeast 201 231 11,800 1,740 Climbing Chicago Center
04:33PM 41.7467 -91.4494 112° Southeast 205 236 13,800 1,620 Climbing Chicago Center
04:34PM 41.7250 -91.3808 113° Southeast 203 234 15,200 1,440 Climbing Chicago Center
04:35PM 41.7028 -91.3114 113° Southeast 205 236 16,800 1,500 Climbing Chicago Center
04:36PM 41.6831 -91.2422 111° Southeast 201 231 18,400 1,440 Climbing Chicago Center
04:37PM 41.6619 -91.1753 113° Southeast 199 229 19,800 1,380 Climbing Chicago Center
04:38PM 41.6367 -91.0931 112° Southeast 201 231 21,300 1,200 Climbing Chicago Center
04:39PM 41.6144 -91.0228 113° Southeast 206 237 22,300 780 Climbing Chicago Center
04:40PM 41.5911 -90.9478 113° Southeast 216 249 23,000 300 Climbing Chicago Center
04:41PM 41.5625 -90.8572 113° Southeast 258 297 23,000  Level Chicago Center
04:42PM 41.5325 -90.7586 112° Southeast 286 329 23,000  Level Chicago Center
04:43PM 41.4989 -90.6519 113° Southeast 301 346 23,000  Level Chicago Center
04:44PM 41.4575 -90.5267 114° Southeast 305 351 23,000  Level Chicago Center
04:45PM 41.4222 -90.4233 114° Southeast 307 353 23,000  Level Chicago Center
04:46PM 41.3875 -90.3192 114° Southeast 308 354 23,000  Level Chicago Center
04:47PM 41.3533 -90.2150 114° Southeast 307 353 23,000  Level Chicago Center
04:48PM 41.3194 -90.1133 114° Southeast 302 348 23,000  Level Chicago Center
04:49PM 41.2836 -90.0111 115° Southeast 304 350 23,000  Level Chicago Center
04:50PM 41.2439 -89.8892 113° Southeast 300 345 23,000  Level Chicago Center
04:51PM 41.2097 -89.7889 114° Southeast 298 343 23,000  Level Chicago Center
04:52PM 41.1753 -89.6886 115° Southeast 297 342 23,000  Level Chicago Center
04:53PM 41.1411 -89.5881 114° Southeast 297 342 23,000  Level Chicago Center
04:55PM 41.1072 -89.4886 114° Southeast 296 341 23,000  Level Chicago Center
04:56PM 41.0728 -89.3903 115° Southeast 294 338 23,000  Level Chicago Center
04:57PM 41.0386 -89.2917 115° Southeast 294 338 23,000  Level Chicago Center
04:58PM 40.9981 -89.1731 114° Southeast 293 337 23,000  Level Chicago Center
04:59PM 40.9639 -89.0761 115° Southeast 292 336 23,000  Level Chicago Center
05:00PM 40.9289 -88.9778 115° Southeast 293 337 23,000  Level Chicago Center
05:01PM 40.8950 -88.8794 114° Southeast 294 338 23,000  Level Chicago Center
05:02PM 40.8625 -88.7864 115° Southeast 296 341 23,000  Level Chicago Center
05:03PM 40.8208 -88.6706 115° Southeast 294 338 23,000  Level Chicago Center
05:04PM 40.7869 -88.5731 115° Southeast 295 339 23,000  Level Chicago Center
05:05PM 40.7531 -88.4778 115° Southeast 292 336 23,000  Level Chicago Center
05:06PM 40.7181 -88.3794 115° Southeast 296 341 23,000  Level Chicago Center
05:07PM 40.6764 -88.2633 115° Southeast 296 341 23,000  Level Chicago Center
05:08PM 40.6417 -88.1667 115° Southeast 296 341 23,000  Level Chicago Center
05:09PM 40.6069 -88.0706 115° Southeast 295 339 23,000  Level Chicago Center
05:10PM 40.5725 -87.9739 115° Southeast 294 338 23,000  Level Chicago Center
05:11PM 40.5369 -87.8781 116° Southeast 294 338 23,000  Level Chicago Center
05:12PM 40.4956 -87.7606 115° Southeast 297 342 23,000  Level Chicago Center
05:13PM 40.4594 -87.6642 116° Southeast 296 341 23,000  Level Chicago Center
05:14PM 40.4239 -87.5683 116° Southeast 295 339 23,000 -360 Level Chicago Center
05:15PM 40.3878 -87.4711 116° Southeast 298 343 22,300 -1,320 Descending Chicago Center
05:16PM 40.3403 -87.3444 116° Southeast 331 381 20,300 -1,740 Descending Chicago Center
05:17PM 40.2997 -87.2378 116° Southeast 330 380 18,800 -1,560 Descending Chicago Center
05:18PM 40.2608 -87.1319 116° Southeast 325 374 17,100 -1,620 Descending Chicago Center
05:19PM 40.2228 -87.0317 116° Southeast 315 362 15,500 -1,500 Descending Chicago Center
05:20PM 40.1861 -86.9342 116° Southeast 304 350 14,000 -1,500 Descending Chicago Center
05:21PM 40.1433 -86.8458 122° Southeast 298 343 12,500 -1,560 Descending Chicago Center
05:23PM 40.0783 -86.7494 131° Southeast 292 336 10,700 -1,200 Descending Indianapolis Center
05:24PM 40.0256 -86.6736 132° Southeast 286 329 10,000 -480 Descending Indianapolis Center
05:25PM 39.9778 -86.6033 132° Southeast 267 307 9,800 -360 Descending Indianapolis Center
05:26PM 39.9292 -86.5331 132° Southeast 262 302 9,300 -420 Descending Indianapolis Center
05:27PM 39.8792 -86.4606 132° Southeast 265 305 9,000 -420 Descending Indianapolis Center
05:28PM 39.8203 -86.3758 132° Southeast 264 304 8,500 -480 Descending Indianapolis Center
05:28PM 39.8000 -86.3333 122° Southeast 269 310 8,300 -600 Descending Indianapolis TRACON
05:29PM 39.7500 -86.2833 142° Southeast 273 314 7,800 -1,080 Descending Indianapolis TRACON
05:30PM 39.7167 -86.2000 117° Southeast 268 308 6,300 -900 Descending Indianapolis TRACON
05:31PM 39.7500 -86.1167 62° Northeast 242 278 6,000 -240 Descending Indianapolis TRACON
05:32PM 39.7747 -86.0606 60° Northeast 243 280 5,900 -780 Descending Indianapolis Center
05:33PM 39.8047 -85.9819 64° Northeast 243 280 4,600 -1,260 Descending Indianapolis Center